Adak, AK

12:03 AM HAST on December 19, 2014 (GMT -1000)
Adak | Change Station
CLOSE
Current Station
Airport
Location: Adak,
Elevation: 13 ft
Nearby Weather Stations

Elev 13 ft 51.88 °N, 176.65 °W | Updated 7 minutes ago

Overcast
Overcast
37 °F
Feels Like 26 °F
N
23
Wind Variable Wind from NNE
Gusts 33 mph

Today
High -- | Low -- °F
--% Chance of Precip.
Yesterday
High -- | Low -- °F
Precip. -- in
9:50 AM 5:36 PM
Waning Crescent, 9% visible
Pressure 28.59 in
Visibility 9.0 miles
Clouds Overcast 1000 ft
Windchill 26 °F
Dew Point 34 °F
Humidity 87%
Rainfall 0.33 in
Snow Depth Not available.
UV 0 out of 12
Pollen Not available.
Air Quality Not available.
Flu Activity Not available.
METAR PADK 190956Z AUTO 03020G29KT 9SM OVC010 03/01 A2859 RMK AO1 P0004

More Conditions Fewer Conditions

Pressure 28.59 in
Visibility 9.0 miles
Clouds Overcast 1000 ft
Windchill 26 °F
Dew Point 34 °F
Humidity 87%
Rainfall 0.33 in
Snow Depth Not available.
UV 0 out of 12
Pollen Not available.
Air Quality Not available.
Flu Activity Not available.
METAR PADK 190956Z AUTO 03020G29KT 9SM OVC010 03/01 A2859 RMK AO1 P0004

More Conditions Fewer Conditions

10-Day Weather Forecast

Almanac

Astronomy

Dec. 19, 2014 Rise Set
Actual Time
Civil Twilight
Nautical Twilight
Astronomical Twilight
Moon
Length of Visible Light
Length of Day
Tomorrow will be .
, % of the Moon is Illuminated

Today's Extremes

State Highs State Lows

Community

WunderPhotos

Upload Photos

1,778,966 photos uploaded!

WunderBlogs® & News

Nearby

Air Quality

  Air Quality AQ Index Pollutant
Not available.

Snow Depth

Station Depth Elevation

Earthquake Activity

City Distance Mag. Time & Date
Minimum magnitude displayed is 2.5.

Coastal Water Temperatures

Place Temperature

Nearby Weather Stations